Huvudsida
METAR-TAF:

METAR-TAF

Flygplatser :

Pemba, Moçambique

latitud: 12-59S, longitud: 040-32E, höjd: 101 m

Aktuellt väderrapport

Denna rapport gjordes för 10 minuter sedan, klockan 12:00 UTC
Vind 11 kt från sydost, varierande mellan ost/sydost och syd
Temperatur 29°C
Fuktighet 48%
Tryck 1016 hPa
Sikt 10 km eller mer
Få moln på en höjd av 2000 ft

METAR: FQPB 191200Z 14011KT 110V170 9999 FEW020 29/17 Q1016

Tid: 14:10 (12:10 UTC)

Väderprognos

Denna rapport gjordes för 2 timmar och 10 minuter sedan, klockan 10:00 UTC
Prognos gäller från 19 kl. 12 UTC till 20 kl. 12 UTC
Vind 12 kt från syd/sydost
Sikt 10 km eller mer
Få moln på en höjd av 2000 ft
Blir
från 20 kl. 00 UTC till 20 kl. 02 UTC
Vind 6 kt från sydväst
Blir
från 20 kl. 10 UTC till 20 kl. 12 UTC
Vind 10 kt från ost

TAF: FQPB 191000Z 1912/2012 15012KT 9999 FEW020 TX28/1913Z TN21/2002Z BECMG 2000/2002 22006KT BECMG 2010/2012 09010KT

Aktuella väderrapporter och prognoser från 4000 flygplatser (METAR- och TAF-rapporter).

De tillgängliga stationerna syns som gula och röda prickar på kartan.

För musen över prickarna för att se namnen på stationerna.

Klicka sedan för att få väderrapporter och prognoser.

För att ändra kartan: Klicka på de gröna knapparna med ett svart kors på för att zooma in; den gröna knappen med ett streck på för att zooma ut; eller på de gröna pilarna för angränsande kartor.


METAR-TAF: